Time;durP1;ratioP1;P1;durP2;ratioP2;P2;SDS_P1;SDS_P2;PMS_P1;PMS_P2;Temp;Humidity;BMP_temperature;BMP_pressure;BME280_temperature;BME280_humidity;BME280_pressure;Samples;Min_cycle;Max_cycle;Signal;HPM_P1;HPM_P2
2021/12/27 00:01:11;;;;;;;;;;;5.50;97.40;;;;;;5041154;28;19932;-77
2021/12/27 00:03:38;;;;;;;;;;;5.40;97.30;;;;;;5045369;28;19931;-77
2021/12/27 00:06:04;;;;;;;;;;;5.50;97.30;;;;;;5042809;28;20033;-76
2021/12/27 00:08:32;;;;;;;;;;;5.50;97.30;;;;;;5042732;28;20002;-76
2021/12/27 00:10:59;;;;;;;;;;;5.50;97.30;;;;;;5042946;28;19932;-76
2021/12/27 00:13:25;;;;;;;;;;;5.50;97.40;;;;;;5045289;28;19928;-75
2021/12/27 00:15:52;;;;;;;;;;;5.50;97.40;;;;;;5041516;28;19951;-77
2021/12/27 00:18:19;;;;;;;;;;;5.50;97.40;;;;;;5040881;28;20489;-77
2021/12/27 00:20:45;;;;;;;;;;;5.50;97.30;;;;;;5040973;28;19924;-77
2021/12/27 00:23:12;;;;;;;;;;;5.50;97.30;;;;;;5040663;28;19931;-76
2021/12/27 00:25:40;;;;;;;;;;;5.50;97.30;;;;;;5042993;28;19932;-76
2021/12/27 00:28:06;;;;;;;;;;;5.50;97.40;;;;;;5036445;28;19928;-76
2021/12/27 00:30:33;;;;;;;;;;;5.50;97.40;;;;;;5042653;28;19928;-76
2021/12/27 00:32:59;;;;;;;;;;;5.50;97.30;;;;;;5044974;28;19925;-76
2021/12/27 00:35:28;;;;;;;;;;;5.50;97.30;;;;;;5043692;28;20574;-76
2021/12/27 00:37:54;;;;;;;;;;;5.50;97.30;;;;;;5042983;28;20412;-77
2021/12/27 00:40:21;;;;;;;;;;;5.50;97.40;;;;;;5042708;28;19931;-77
2021/12/27 00:42:50;;;;;;;;;;;5.50;97.40;;;;;;5044058;28;20448;-76
2021/12/27 00:45:17;;;;;;;;;;;5.50;97.30;;;;;;5030160;28;19920;-76
2021/12/27 00:47:44;;;;;;;;;;;5.50;97.40;;;;;;5043412;28;19924;-77
2021/12/27 00:50:12;;;;;;;;;;;5.50;97.30;;;;;;5044271;28;19929;-77
2021/12/27 00:52:38;;;;;;;;;;;5.50;97.40;;;;;;5044486;28;20273;-78
2021/12/27 00:55:05;;;;;;;;;;;5.50;97.30;;;;;;5042261;28;20293;-76
2021/12/27 00:57:32;;;;;;;;;;;5.50;97.30;;;;;;5042156;28;19924;-76
2021/12/27 00:59:59;;;;;;;;;;;5.50;97.30;;;;;;5039687;28;19975;-76
2021/12/27 01:02:26;;;;;;;;;;;5.50;97.30;;;;;;5039696;28;20522;-77
2021/12/27 01:04:53;;;;;;;;;;;5.50;97.30;;;;;;5034130;28;20344;-76
2021/12/27 01:07:19;;;;;;;;;;;5.50;97.30;;;;;;5037600;28;19924;-76
2021/12/27 01:09:59;;;;;;;;;;;5.50;97.30;;;;;;5038599;28;19931;-77
2021/12/27 01:12:33;;;;;;;;;;;5.50;97.30;;;;;;5040490;28;20156;-77
2021/12/27 01:15:32;;;;;;;;;;;5.50;97.30;;;;;;5040245;28;19920;-77
2021/12/27 01:17:57;;;;;;;;;;;5.50;97.30;;;;;;5036741;28;20353;-77
2021/12/27 01:20:24;;;;;;;;;;;5.50;97.30;;;;;;5044224;28;19931;-77
2021/12/27 01:22:51;;;;;;;;;;;5.50;97.30;;;;;;5042012;28;19924;-76
2021/12/27 01:25:18;;;;;;;;;;;5.50;97.30;;;;;;5041089;28;19929;-76
2021/12/27 01:27:45;;;;;;;;;;;5.50;97.30;;;;;;5040493;28;19978;-76
2021/12/27 01:30:15;;;;;;;;;;;5.50;97.30;;;;;;5041630;28;20386;-77
2021/12/27 01:32:47;;;;;;;;;;;5.50;97.30;;;;;;5038962;28;19982;-76
2021/12/27 01:35:14;;;;;;;;;;;5.50;97.30;;;;;;5043004;28;19924;-76
2021/12/27 01:37:40;;;;;;;;;;;5.50;97.30;;;;;;5043797;28;20376;-77
2021/12/27 01:40:08;;;;;;;;;;;5.50;97.30;;;;;;5039288;28;19932;-78
2021/12/27 01:42:34;;;;;;;;;;;5.50;97.30;;;;;;5038180;28;19931;-77
2021/12/27 01:45:01;;;;;;;;;;;5.50;97.30;;;;;;5034235;28;19961;-77
2021/12/27 01:47:30;;;;;;;;;;;5.50;97.30;;;;;;5039800;28;19925;-76
2021/12/27 01:49:57;;;;;;;;;;;5.50;97.30;;;;;;5041922;28;19990;-77
2021/12/27 01:52:23;;;;;;;;;;;5.50;97.40;;;;;;5035840;28;19925;-77
2021/12/27 01:54:51;;;;;;;;;;;5.50;97.30;;;;;;5033739;28;19925;-77
2021/12/27 01:57:17;;;;;;;;;;;5.50;97.30;;;;;;5040793;28;19933;-77
2021/12/27 01:59:44;;;;;;;;;;;5.50;97.30;;;;;;5039784;28;20309;-78
2021/12/27 02:02:12;;;;;;;;;;;5.50;97.30;;;;;;5041725;28;20687;-77
2021/12/27 02:04:40;;;;;;;;;;;5.50;97.30;;;;;;5040429;28;19931;-77
2021/12/27 02:07:06;;;;;;;;;;;5.50;97.40;;;;;;5043669;28;19932;-77
2021/12/27 02:09:44;;;;;;;;;;;5.50;97.30;;;;;;5042052;28;19932;-77
2021/12/27 02:12:11;;;;;;;;;;;5.50;97.30;;;;;;5039374;28;19924;-77
2021/12/27 02:14:37;;;;;;;;;;;5.50;97.30;;;;;;5036991;28;19936;-77
2021/12/27 02:17:04;;;;;;;;;;;5.50;97.30;;;;;;5036658;28;19928;-77
2021/12/27 02:19:30;;;;;;;;;;;5.50;97.30;;;;;;5040414;28;19921;-77
2021/12/27 02:21:58;;;;;;;;;;;5.50;97.40;;;;;;5043205;28;19979;-77
2021/12/27 02:24:25;;;;;;;;;;;5.50;97.70;;;;;;5040456;28;19932;-79
2021/12/27 02:26:51;;;;;;;;;;;5.50;97.40;;;;;;5034362;28;19932;-77
2021/12/27 02:29:18;;;;;;;;;;;5.50;97.70;;;;;;5043220;28;19932;-77
2021/12/27 02:31:45;;;;;;;;;;;5.50;97.30;;;;;;5041619;28;19924;-77
2021/12/27 02:34:12;;;;;;;;;;;5.50;97.30;;;;;;5037679;28;19931;-77
2021/12/27 02:36:38;;;;;;;;;;;5.50;97.40;;;;;;5042730;28;20381;-78
2021/12/27 02:39:06;;;;;;;;;;;5.50;97.40;;;;;;5041943;28;19924;-77
2021/12/27 02:41:33;;;;;;;;;;;5.50;97.40;;;;;;5042793;28;19929;-77
2021/12/27 02:43:59;;;;;;;;;;;5.50;97.40;;;;;;5042513;28;19933;-78
2021/12/27 02:46:26;;;;;;;;;;;5.50;97.40;;;;;;5035578;28;19932;-77
2021/12/27 02:48:53;;;;;;;;;;;5.50;97.40;;;;;;5041027;28;19948;-77
2021/12/27 02:51:19;;;;;;;;;;;5.50;97.40;;;;;;5040982;28;21628;-77
2021/12/27 02:53:46;;;;;;;;;;;5.50;97.40;;;;;;5040287;28;19924;-77
2021/12/27 02:56:14;;;;;;;;;;;5.50;97.40;;;;;;5041337;28;19932;-77
2021/12/27 02:58:40;;;;;;;;;;;5.50;97.40;;;;;;5042365;28;19928;-77
2021/12/27 03:01:08;;;;;;;;;;;5.50;97.40;;;;;;5038589;28;19932;-77
2021/12/27 03:03:35;;;;;;;;;;;5.50;97.40;;;;;;5041833;28;19932;-77
2021/12/27 03:06:02;;;;;;;;;;;5.50;97.40;;;;;;5044054;28;19931;-77
2021/12/27 03:08:28;;;;;;;;;;;5.50;97.40;;;;;;5040990;28;19929;-78
2021/12/27 03:10:56;;;;;;;;;;;5.50;97.40;;;;;;5041379;28;19931;-77
2021/12/27 03:13:24;;;;;;;;;;;5.50;97.40;;;;;;5046626;28;19928;-77
2021/12/27 03:15:52;;;;;;;;;;;5.50;97.40;;;;;;5038387;28;20285;-78
2021/12/27 03:18:19;;;;;;;;;;;5.50;97.40;;;;;;5042264;28;20200;-77
2021/12/27 03:20:45;;;;;;;;;;;5.50;97.40;;;;;;5046350;28;19924;-78
2021/12/27 03:23:12;;;;;;;;;;;5.50;97.50;;;;;;5042767;28;20284;-77
2021/12/27 03:25:39;;;;;;;;;;;5.50;97.50;;;;;;5037625;28;19932;-77
2021/12/27 03:28:06;;;;;;;;;;;5.50;97.50;;;;;;5040410;28;19931;-78
2021/12/27 03:30:34;;;;;;;;;;;5.50;97.50;;;;;;5044073;28;19925;-77
2021/12/27 03:33:00;;;;;;;;;;;5.50;97.50;;;;;;5044115;28;19936;-78
2021/12/27 03:35:34;;;;;;;;;;;5.50;97.50;;;;;;5045600;28;19932;-77
2021/12/27 03:38:01;;;;;;;;;;;5.50;97.50;;;;;;5043859;28;19931;-78
2021/12/27 03:40:28;;;;;;;;;;;5.50;97.50;;;;;;5040245;28;19936;-77
2021/12/27 03:42:54;;;;;;;;;;;5.50;97.50;;;;;;5046193;28;19931;-78
2021/12/27 03:45:22;;;;;;;;;;;5.50;97.60;;;;;;5039111;28;19932;-78
2021/12/27 03:47:50;;;;;;;;;;;5.50;97.60;;;;;;5044397;28;19931;-77
2021/12/27 03:50:17;;;;;;;;;;;5.50;97.60;;;;;;5041315;28;20039;-78
2021/12/27 03:52:44;;;;;;;;;;;5.50;97.60;;;;;;5041525;28;20004;-76
2021/12/27 03:55:12;;;;;;;;;;;5.50;97.60;;;;;;5042954;28;19931;-77
2021/12/27 03:57:40;;;;;;;;;;;5.50;97.60;;;;;;5044062;28;19924;-78
2021/12/27 04:00:27;;;;;;;;;;;5.50;97.60;;;;;;5038547;28;20110;-78
2021/12/27 04:02:56;;;;;;;;;;;5.50;97.60;;;;;;5042440;28;20969;-78
2021/12/27 04:05:23;;;;;;;;;;;5.50;97.60;;;;;;5048644;28;19924;-77
2021/12/27 04:07:59;;;;;;;;;;;5.50;97.60;;;;;;5040849;28;19929;-78
2021/12/27 04:10:26;;;;;;;;;;;5.50;97.60;;;;;;5042984;28;20036;-77
2021/12/27 04:22:03;;;;;;;;;;;5.50;97.60;;;;;;5032986;28;19920;-77
2021/12/27 04:24:30;;;;;;;;;;;5.50;97.60;;;;;;5044759;28;20582;-78
2021/12/27 04:26:56;;;;;;;;;;;5.50;97.60;;;;;;5049084;28;19959;-78
2021/12/27 04:29:23;;;;;;;;;;;5.50;97.70;;;;;;5046787;28;19986;-78
2021/12/27 04:31:50;;;;;;;;;;;5.50;97.80;;;;;;5048633;28;19928;-78
2021/12/27 04:34:16;;;;;;;;;;;5.50;97.80;;;;;;5045790;28;19928;-78
2021/12/27 04:36:43;;;;;;;;;;;5.50;97.90;;;;;;5046302;28;19924;-78
2021/12/27 04:39:10;;;;;;;;;;;5.50;97.90;;;;;;5043700;28;19924;-79
2021/12/27 04:41:37;;;;;;;;;;;5.50;97.90;;;;;;5041227;28;20288;-78
2021/12/27 04:44:04;;;;;;;;;;;5.50;97.90;;;;;;5044688;28;20011;-78
2021/12/27 04:46:30;;;;;;;;;;;5.50;97.90;;;;;;5042267;28;20283;-77
2021/12/27 04:48:57;;;;;;;;;;;5.50;97.90;;;;;;5044977;28;19994;-77
2021/12/27 04:51:23;;;;;;;;;;;5.50;97.90;;;;;;5040254;28;19925;-77
2021/12/27 04:53:51;;;;;;;;;;;5.50;97.90;;;;;;5041047;28;20053;-77
2021/12/27 04:56:19;;;;;;;;;;;5.50;97.90;;;;;;5043010;28;20050;-78
2021/12/27 04:58:46;;;;;;;;;;;5.50;97.90;;;;;;5045157;28;19929;-78
2021/12/27 05:01:13;;;;;;;;;;;5.50;97.90;;;;;;5043972;28;19924;-77
2021/12/27 05:03:39;;;;;;;;;;;5.50;97.90;;;;;;5042154;28;19925;-77
2021/12/27 05:06:06;;;;;;;;;;;5.50;97.90;;;;;;5039390;28;19929;-78
2021/12/27 05:08:33;;;;;;;;;;;5.50;97.90;;;;;;5046093;28;20006;-78
2021/12/27 05:11:00;;;;;;;;;;;5.50;97.80;;;;;;5045179;28;19929;-78
2021/12/27 05:13:31;;;;;;;;;;;5.60;97.90;;;;;;5047289;28;19928;-78
2021/12/27 05:15:58;;;;;;;;;;;5.50;97.80;;;;;;5043723;28;19932;-77
2021/12/27 05:18:25;;;;;;;;;;;5.50;97.90;;;;;;5049141;28;19931;-78
2021/12/27 05:20:51;;;;;;;;;;;5.60;97.90;;;;;;5041350;28;19929;-77
2021/12/27 05:23:18;;;;;;;;;;;5.50;97.90;;;;;;5047035;28;19936;-78
2021/12/27 05:25:44;;;;;;;;;;;5.60;97.90;;;;;;5046811;28;19928;-78
2021/12/27 05:28:11;;;;;;;;;;;5.60;97.90;;;;;;5046197;28;19925;-78
2021/12/27 05:30:41;;;;;;;;;;;5.50;97.90;;;;;;5047221;28;19928;-78
2021/12/27 05:33:07;;;;;;;;;;;5.50;97.90;;;;;;5045908;28;19924;-77
2021/12/27 05:35:34;;;;;;;;;;;5.50;97.90;;;;;;5044393;28;19927;-78
2021/12/27 05:38:00;;;;;;;;;;;5.50;97.90;;;;;;5049127;28;19928;-78
2021/12/27 05:40:27;;;;;;;;;;;5.50;97.90;;;;;;5037961;28;19926;-78
2021/12/27 05:42:54;;;;;;;;;;;5.50;97.90;;;;;;5042721;28;20290;-79
2021/12/27 05:45:21;;;;;;;;;;;5.50;97.90;;;;;;5043016;28;20881;-78
2021/12/27 05:47:49;;;;;;;;;;;5.50;97.90;;;;;;5047204;28;19925;-79
2021/12/27 05:50:16;;;;;;;;;;;5.50;97.90;;;;;;5048144;28;19935;-78
2021/12/27 05:52:43;;;;;;;;;;;5.50;97.90;;;;;;5046000;28;19955;-77
2021/12/27 05:55:10;;;;;;;;;;;5.50;97.90;;;;;;5045274;28;19958;-78
2021/12/27 05:57:37;;;;;;;;;;;5.50;98.00;;;;;;5046733;28;19928;-78
2021/12/27 06:00:05;;;;;;;;;;;5.50;98.00;;;;;;5044255;28;19925;-78
2021/12/27 06:02:31;;;;;;;;;;;5.50;98.00;;;;;;5046317;28;19925;-78
2021/12/27 06:04:59;;;;;;;;;;;5.50;98.00;;;;;;5044902;28;19929;-77
2021/12/27 06:07:26;;;;;;;;;;;5.50;98.00;;;;;;5044890;28;19931;-78
2021/12/27 06:09:52;;;;;;;;;;;5.50;98.00;;;;;;5040281;28;19929;-78
2021/12/27 06:12:19;;;;;;;;;;;5.50;98.00;;;;;;5042000;28;19928;-79
2021/12/27 06:14:45;;;;;;;;;;;5.50;98.10;;;;;;5046273;28;19967;-78
2021/12/27 06:17:12;;;;;;;;;;;5.50;98.10;;;;;;5045913;28;19932;-78
2021/12/27 06:19:38;;;;;;;;;;;5.50;98.10;;;;;;5043818;28;19925;-78
2021/12/27 06:22:07;;;;;;;;;;;5.50;98.10;;;;;;5039425;28;19929;-78
2021/12/27 06:24:33;;;;;;;;;;;5.50;98.10;;;;;;5040985;28;19935;-78
2021/12/27 06:27:00;;;;;;;;;;;5.50;98.10;;;;;;5035089;28;19933;-79
2021/12/27 06:29:27;;;;;;;;;;;5.50;98.10;;;;;;5036008;28;20400;-78
2021/12/27 06:31:53;;;;;;;;;;;5.50;98.10;;;;;;5045031;28;19925;-78
2021/12/27 06:34:20;;;;;;;;;;;5.50;98.20;;;;;;5045175;28;19974;-78
2021/12/27 06:36:46;;;;;;;;;;;5.50;98.20;;;;;;5042209;28;19987;-78
2021/12/27 06:39:14;;;;;;;;;;;5.50;98.50;;;;;;5044546;28;19925;-78
2021/12/27 06:41:41;;;;;;;;;;;5.50;98.20;;;;;;5039005;28;19925;-77
2021/12/27 06:44:07;;;;;;;;;;;5.50;98.20;;;;;;5038819;28;20683;-78
2021/12/27 06:46:34;;;;;;;;;;;5.50;98.20;;;;;;5044749;28;19982;-78
2021/12/27 06:49:01;;;;;;;;;;;5.50;98.20;;;;;;5045948;28;19924;-78
2021/12/27 06:51:27;;;;;;;;;;;5.50;98.20;;;;;;5043730;28;19925;-78
2021/12/27 06:53:54;;;;;;;;;;;5.50;98.20;;;;;;5044097;28;19920;-78
2021/12/27 06:56:22;;;;;;;;;;;5.50;98.20;;;;;;5043988;28;20354;-78
2021/12/27 06:58:48;;;;;;;;;;;5.50;98.20;;;;;;5038641;28;20373;-78
2021/12/27 07:01:15;;;;;;;;;;;5.50;98.20;;;;;;5041928;28;19924;-78
2021/12/27 07:03:41;;;;;;;;;;;5.50;98.20;;;;;;5042041;28;19970;-79
2021/12/27 07:06:08;;;;;;;;;;;5.50;98.20;;;;;;5041805;28;19947;-78
2021/12/27 07:08:35;;;;;;;;;;;5.50;98.30;;;;;;5041131;28;19928;-78
2021/12/27 07:11:01;;;;;;;;;;;5.50;98.30;;;;;;5044102;28;20002;-78
2021/12/27 07:13:29;;;;;;;;;;;5.50;98.20;;;;;;5042705;28;19924;-78
2021/12/27 07:15:56;;;;;;;;;;;5.50;98.20;;;;;;5048338;28;19974;-79
2021/12/27 07:18:23;;;;;;;;;;;5.50;98.30;;;;;;5050442;28;19921;-78
2021/12/27 07:20:50;;;;;;;;;;;5.50;98.20;;;;;;5043989;28;20558;-78
2021/12/27 07:23:17;;;;;;;;;;;5.50;98.20;;;;;;5045242;28;20445;-77
2021/12/27 07:25:44;;;;;;;;;;;5.40;98.20;;;;;;5041365;28;19924;-78
2021/12/27 07:28:10;;;;;;;;;;;5.50;98.20;;;;;;5049271;28;19994;-78
2021/12/27 07:30:38;;;;;;;;;;;5.50;98.20;;;;;;5045879;28;20314;-78
2021/12/27 07:33:05;;;;;;;;;;;5.50;98.20;;;;;;5048925;28;19932;-78
2021/12/27 07:35:31;;;;;;;;;;;5.50;98.20;;;;;;5043886;28;19929;-78
2021/12/27 07:37:58;;;;;;;;;;;5.50;98.20;;;;;;5045709;28;19932;-77
2021/12/27 07:40:25;;;;;;;;;;;5.50;98.20;;;;;;5047774;28;19928;-78
2021/12/27 07:42:51;;;;;;;;;;;5.50;98.20;;;;;;5046551;28;20292;-78
2021/12/27 07:45:18;;;;;;;;;;;5.40;98.20;;;;;;5039740;28;19929;-78
2021/12/27 07:47:46;;;;;;;;;;;5.50;98.30;;;;;;5047086;28;19928;-79
2021/12/27 07:50:12;;;;;;;;;;;5.50;98.30;;;;;;5039400;28;20404;-77
2021/12/27 07:52:39;;;;;;;;;;;5.50;98.30;;;;;;5039335;28;19928;-78
2021/12/27 07:55:06;;;;;;;;;;;5.50;98.30;;;;;;5046191;28;19921;-77
2021/12/27 07:57:51;;;;;;;;;;;5.50;98.30;;;;;;5047222;28;19986;-78
2021/12/27 08:00:17;;;;;;;;;;;5.50;98.30;;;;;;5043836;28;19978;-79
2021/12/27 08:02:45;;;;;;;;;;;5.50;98.30;;;;;;5042559;28;19924;-79
2021/12/27 08:05:12;;;;;;;;;;;5.50;98.40;;;;;;5046356;28;19931;-76
2021/12/27 08:07:38;;;;;;;;;;;5.50;98.40;;;;;;5044918;28;19925;-79
2021/12/27 08:10:06;;;;;;;;;;;5.50;98.40;;;;;;5044103;28;19931;-77
2021/12/27 08:12:33;;;;;;;;;;;5.50;98.40;;;;;;5044357;28;19924;-78
2021/12/27 08:15:00;;;;;;;;;;;5.50;98.40;;;;;;5042217;28;19936;-78
2021/12/27 08:17:26;;;;;;;;;;;5.50;98.40;;;;;;5052542;28;19970;-77
2021/12/27 08:20:00;;;;;;;;;;;5.50;98.40;;;;;;5047752;28;19926;-76
2021/12/27 08:22:27;;;;;;;;;;;5.50;98.40;;;;;;5045846;28;19986;-76
2021/12/27 08:24:53;;;;;;;;;;;5.50;98.40;;;;;;5047269;28;19924;-77
2021/12/27 08:30:51;;;;;;;;;;;5.50;98.40;;;;;;4992040;28;20605;-76
2021/12/27 08:33:18;;;;;;;;;;;5.50;98.40;;;;;;5045197;28;19939;-77
2021/12/27 08:38:47;;;;;;;;;;;5.50;98.40;;;;;;5046451;28;19983;-76
2021/12/27 08:41:14;;;;;;;;;;;5.50;98.40;;;;;;5044443;28;19921;-77
2021/12/27 08:43:40;;;;;;;;;;;5.60;98.40;;;;;;5044503;28;19929;-76
2021/12/27 08:46:07;;;;;;;;;;;5.60;98.40;;;;;;5045386;28;19920;-77
2021/12/27 08:48:34;;;;;;;;;;;5.60;98.50;;;;;;5047310;28;19932;-77
2021/12/27 08:51:02;;;;;;;;;;;5.60;98.50;;;;;;5050516;28;19935;-79
2021/12/27 08:53:28;;;;;;;;;;;5.60;98.50;;;;;;5045138;28;19932;-77
2021/12/27 08:55:56;;;;;;;;;;;5.60;98.50;;;;;;5044395;28;19917;-75
2021/12/27 08:58:23;;;;;;;;;;;5.60;98.50;;;;;;5041042;28;20015;-78
2021/12/27 09:00:50;;;;;;;;;;;5.70;98.50;;;;;;5048654;28;19925;-77
2021/12/27 09:03:17;;;;;;;;;;;5.60;98.50;;;;;;5044219;28;19924;-77
2021/12/27 09:05:43;;;;;;;;;;;5.60;98.50;;;;;;5047955;28;19925;-76
2021/12/27 09:08:11;;;;;;;;;;;5.70;98.50;;;;;;5043813;28;19928;-77
2021/12/27 09:10:38;;;;;;;;;;;5.70;98.50;;;;;;5057420;28;20441;-78
2021/12/27 09:13:05;;;;;;;;;;;5.70;98.50;;;;;;5050274;28;19925;-77
2021/12/27 09:15:31;;;;;;;;;;;5.70;98.50;;;;;;5040571;28;20363;-78
2021/12/27 09:17:58;;;;;;;;;;;5.70;98.50;;;;;;5045402;28;20309;-77
2021/12/27 09:20:26;;;;;;;;;;;5.70;98.50;;;;;;5045803;28;19986;-78
2021/12/27 09:22:53;;;;;;;;;;;5.70;98.50;;;;;;5050491;28;19976;-78
2021/12/27 09:25:21;;;;;;;;;;;5.70;98.40;;;;;;5046600;28;19979;-77
2021/12/27 09:27:48;;;;;;;;;;;5.80;98.50;;;;;;5047530;28;19924;-77
2021/12/27 09:30:14;;;;;;;;;;;5.70;98.40;;;;;;5048393;28;19932;-78
2021/12/27 09:35:21;;;;;;;;;;;5.80;98.40;;;;;;5037090;28;19937;-77
2021/12/27 09:37:48;;;;;;;;;;;5.80;98.40;;;;;;5042884;28;19924;-78
2021/12/27 09:40:16;;;;;;;;;;;5.80;98.40;;;;;;5039499;28;19929;-78
2021/12/27 09:42:44;;;;;;;;;;;5.80;98.40;;;;;;5042161;28;20361;-78
2021/12/27 09:45:11;;;;;;;;;;;5.80;98.40;;;;;;5038627;28;19933;-78
2021/12/27 09:47:37;;;;;;;;;;;5.80;98.40;;;;;;5036574;28;19925;-79
2021/12/27 09:50:05;;;;;;;;;;;5.80;98.50;;;;;;5043221;28;19932;-77
2021/12/27 09:52:32;;;;;;;;;;;5.80;98.50;;;;;;5038728;28;20039;-77
2021/12/27 09:55:03;;;;;;;;;;;5.90;98.50;;;;;;5037371;28;19991;-77
2021/12/27 09:57:30;;;;;;;;;;;5.80;98.50;;;;;;5040286;28;19921;-78
2021/12/27 09:59:57;;;;;;;;;;;5.80;98.40;;;;;;5038574;28;19929;-79
2021/12/27 10:02:24;;;;;;;;;;;5.80;98.40;;;;;;5040864;28;19928;-78
2021/12/27 10:04:51;;;;;;;;;;;5.90;98.40;;;;;;5037505;28;19929;-77
2021/12/27 10:07:19;;;;;;;;;;;5.90;98.40;;;;;;5035481;28;19928;-77
2021/12/27 10:09:46;;;;;;;;;;;5.90;98.40;;;;;;5039488;28;20592;-77
2021/12/27 10:12:19;;;;;;;;;;;5.90;98.40;;;;;;5045158;28;20478;-79
2021/12/27 10:14:45;;;;;;;;;;;5.90;98.40;;;;;;5039026;28;19954;-78
2021/12/27 10:17:13;;;;;;;;;;;5.90;98.40;;;;;;5046689;28;19920;-68
2021/12/27 10:19:40;;;;;;;;;;;5.90;98.40;;;;;;5045364;28;20297;-68
2021/12/27 10:22:10;;;;;;;;;;;5.90;98.40;;;;;;5042611;28;19971;-69
2021/12/27 10:24:37;;;;;;;;;;;5.90;98.40;;;;;;5037102;28;19928;-69
2021/12/27 10:27:04;;;;;;;;;;;5.90;98.40;;;;;;5045662;28;19990;-69
2021/12/27 10:29:32;;;;;;;;;;;5.90;98.40;;;;;;5036094;28;19936;-68
2021/12/27 10:32:00;;;;;;;;;;;5.90;98.50;;;;;;5040042;28;19935;-66
2021/12/27 10:34:28;;;;;;;;;;;5.90;98.50;;;;;;5043962;28;20404;-67
2021/12/27 10:37:13;;;;;;;;;;;5.90;98.50;;;;;;5040765;28;20460;-67
2021/12/27 10:39:43;;;;;;;;;;;6.00;98.50;;;;;;5037617;28;19978;-66
2021/12/27 10:42:11;;;;;;;;;;;5.90;98.50;;;;;;5040453;28;19924;-67
2021/12/27 10:44:38;;;;;;;;;;;6.00;98.50;;;;;;5037608;28;19974;-67
2021/12/27 10:47:05;;;;;;;;;;;6.00;98.50;;;;;;5041509;28;19928;-68
2021/12/27 10:49:46;;;;;;;;;;;6.00;98.50;;;;;;5045293;28;19931;-67
2021/12/27 10:52:12;;;;;;;;;;;6.00;98.50;;;;;;5045740;28;19951;-67
2021/12/27 10:54:39;;;;;;;;;;;6.00;98.50;;;;;;5047259;28;19928;-66
2021/12/27 10:57:06;;;;;;;;;;;6.00;98.50;;;;;;5046091;28;19929;-67
2021/12/27 10:59:32;;;;;;;;;;;6.00;98.50;;;;;;5040256;28;19925;-67
2021/12/27 11:02:07;;;;;;;;;;;6.00;98.50;;;;;;5046794;28;19986;-66
2021/12/27 11:04:34;;;;;;;;;;;6.10;98.50;;;;;;5043693;28;19932;-67
2021/12/27 11:07:02;;;;;;;;;;;6.10;98.50;;;;;;5041515;28;19929;-68
2021/12/27 11:09:29;;;;;;;;;;;6.10;98.60;;;;;;5044754;28;19929;-67
2021/12/27 11:11:56;;;;;;;;;;;6.10;98.50;;;;;;5047475;28;19924;-68
2021/12/27 11:14:22;;;;;;;;;;;6.10;98.50;;;;;;5034166;28;19924;-67
2021/12/27 11:16:49;;;;;;;;;;;6.20;98.50;;;;;;5045882;28;19932;-68
2021/12/27 11:19:16;;;;;;;;;;;6.20;98.80;;;;;;5040601;28;19933;-68
2021/12/27 11:21:44;;;;;;;;;;;6.20;98.40;;;;;;5041535;28;19951;-67
2021/12/27 11:24:12;;;;;;;;;;;6.20;98.40;;;;;;5045531;28;19976;-67
2021/12/27 11:26:40;;;;;;;;;;;6.20;98.30;;;;;;5047866;28;19928;-67
2021/12/27 11:29:11;;;;;;;;;;;6.20;98.30;;;;;;5043153;28;19931;-68
2021/12/27 11:31:38;;;;;;;;;;;6.20;98.30;;;;;;5040847;28;19982;-68
2021/12/27 11:34:06;;;;;;;;;;;6.20;98.30;;;;;;5045225;28;19932;-67
2021/12/27 11:36:33;;;;;;;;;;;6.20;98.30;;;;;;5044646;28;20657;-67
2021/12/27 11:39:00;;;;;;;;;;;6.30;98.30;;;;;;5042010;28;20313;-66
2021/12/27 11:41:33;;;;;;;;;;;6.30;98.20;;;;;;5046419;28;19994;-67
2021/12/27 11:44:01;;;;;;;;;;;6.30;98.20;;;;;;5044836;28;19930;-67
2021/12/27 11:46:29;;;;;;;;;;;6.30;98.20;;;;;;5044633;28;19958;-67
2021/12/27 11:48:56;;;;;;;;;;;6.30;98.20;;;;;;5040966;28;19947;-68
2021/12/27 11:51:31;;;;;;;;;;;6.30;98.20;;;;;;5043378;28;19925;-67
2021/12/27 11:53:59;;;;;;;;;;;6.40;98.20;;;;;;5043911;28;19986;-67
2021/12/27 11:56:48;;;;;;;;;;;6.40;98.20;;;;;;5041233;28;20595;-68
2021/12/27 11:59:29;;;;;;;;;;;6.40;98.20;;;;;;5042667;28;19967;-66
2021/12/27 12:01:56;;;;;;;;;;;6.40;98.20;;;;;;5038184;28;19954;-68
2021/12/27 12:04:38;;;;;;;;;;;6.40;98.10;;;;;;5039525;28;20380;-68
2021/12/27 12:07:05;;;;;;;;;;;6.40;98.10;;;;;;5040906;28;20047;-67
2021/12/27 12:09:32;;;;;;;;;;;6.50;98.20;;;;;;5045106;28;20028;-67
2021/12/27 12:12:04;;;;;;;;;;;6.50;98.20;;;;;;5045211;28;19928;-67
2021/12/27 12:14:31;;;;;;;;;;;6.50;98.20;;;;;;5044635;28;19931;-68
2021/12/27 12:16:58;;;;;;;;;;;6.60;98.20;;;;;;5038892;28;20016;-66
2021/12/27 12:19:38;;;;;;;;;;;6.50;98.10;;;;;;5044411;28;19925;-68
2021/12/27 12:22:05;;;;;;;;;;;6.50;98.10;;;;;;5038181;28;19925;-67
2021/12/27 12:24:32;;;;;;;;;;;6.60;98.10;;;;;;5045014;28;19932;-68
2021/12/27 12:27:00;;;;;;;;;;;6.60;98.10;;;;;;5044065;28;20674;-66
2021/12/27 12:29:28;;;;;;;;;;;6.60;98.10;;;;;;5043456;28;19924;-76
2021/12/27 12:31:56;;;;;;;;;;;6.60;98.10;;;;;;5043354;28;19924;-73
2021/12/27 12:34:23;;;;;;;;;;;6.60;98.20;;;;;;5044412;28;20007;-75
2021/12/27 12:36:50;;;;;;;;;;;6.70;98.20;;;;;;5044528;28;19925;-74
2021/12/27 12:39:18;;;;;;;;;;;6.70;98.20;;;;;;5042356;28;20379;-75
2021/12/27 12:41:45;;;;;;;;;;;6.70;98.20;;;;;;5038688;28;19928;-76
2021/12/27 12:44:11;;;;;;;;;;;6.80;98.20;;;;;;5046692;28;19924;-75
2021/12/27 12:46:41;;;;;;;;;;;6.80;98.20;;;;;;5043062;28;19928;-75
2021/12/27 12:49:09;;;;;;;;;;;6.80;98.20;;;;;;5038941;28;19925;-76
2021/12/27 12:51:37;;;;;;;;;;;6.80;98.20;;;;;;5041047;28;19968;-75
2021/12/27 12:54:06;;;;;;;;;;;6.80;98.30;;;;;;5041566;28;19925;-74
2021/12/27 12:56:33;;;;;;;;;;;6.80;98.20;;;;;;5039737;28;19983;-75
2021/12/27 12:59:00;;;;;;;;;;;6.80;98.20;;;;;;5045546;28;19924;-74
2021/12/27 13:01:26;;;;;;;;;;;6.80;98.30;;;;;;5043192;28;19955;-75
2021/12/27 13:03:59;;;;;;;;;;;6.80;98.20;;;;;;5043777;28;19928;-75
2021/12/27 13:06:26;;;;;;;;;;;6.80;98.30;;;;;;5045407;28;19966;-74
2021/12/27 13:08:54;;;;;;;;;;;6.80;98.20;;;;;;5044661;28;19924;-75
2021/12/27 13:11:20;;;;;;;;;;;6.90;98.30;;;;;;5042220;28;19931;-76
2021/12/27 13:13:47;;;;;;;;;;;6.90;98.30;;;;;;5051236;28;19924;-75
2021/12/27 13:16:14;;;;;;;;;;;6.90;98.30;;;;;;5040980;28;20400;-75
2021/12/27 13:18:42;;;;;;;;;;;6.90;98.20;;;;;;5046018;28;20392;-75
2021/12/27 13:21:10;;;;;;;;;;;6.90;98.30;;;;;;5039711;28;19925;-75
2021/12/27 13:23:39;;;;;;;;;;;6.90;98.30;;;;;;5046149;28;20384;-75
2021/12/27 13:26:06;;;;;;;;;;;6.90;98.30;;;;;;5043354;28;19925;-75
2021/12/27 13:28:34;;;;;;;;;;;7.00;98.30;;;;;;5037816;28;19990;-74
2021/12/27 13:31:02;;;;;;;;;;;6.90;98.30;;;;;;5039448;28;20404;-77
2021/12/27 13:33:30;;;;;;;;;;;7.00;98.30;;;;;;5038984;28;19931;-74
2021/12/27 13:35:58;;;;;;;;;;;7.00;98.30;;;;;;5037332;28;20288;-76
2021/12/27 13:38:26;;;;;;;;;;;7.00;98.30;;;;;;5039801;28;19943;-77
2021/12/27 13:40:55;;;;;;;;;;;7.00;98.30;;;;;;5044172;28;19974;-77
2021/12/27 13:43:21;;;;;;;;;;;7.00;98.30;;;;;;5042409;28;19925;-78
2021/12/27 13:45:48;;;;;;;;;;;7.00;98.20;;;;;;5043516;28;19925;-76
2021/12/27 13:48:15;;;;;;;;;;;7.00;98.30;;;;;;5036696;28;19939;-75
2021/12/27 13:50:43;;;;;;;;;;;7.20;99.20;;;;;;5043064;28;19925;-76
2021/12/27 13:53:10;;;;;;;;;;;7.30;99.70;;;;;;5042038;28;19932;-76
2021/12/27 13:55:38;;;;;;;;;;;7.40;99.90;;;;;;5042619;28;19924;-75
2021/12/27 13:58:15;;;;;;;;;;;7.50;99.90;;;;;;5044958;28;19932;-77
2021/12/27 14:00:42;;;;;;;;;;;7.60;99.90;;;;;;5038470;28;19940;-78
2021/12/27 14:03:23;;;;;;;;;;;7.70;99.90;;;;;;5037570;28;20430;-76
2021/12/27 14:05:52;;;;;;;;;;;7.70;99.90;;;;;;5039827;28;20357;-76
2021/12/27 14:08:19;;;;;;;;;;;7.80;99.80;;;;;;5042932;28;19931;-76
2021/12/27 14:11:00;;;;;;;;;;;7.90;99.60;;;;;;5039171;28;20012;-74
2021/12/27 14:13:43;;;;;;;;;;;7.90;99.40;;;;;;5044657;28;19928;-75
2021/12/27 14:16:20;;;;;;;;;;;8.00;99.10;;;;;;5040923;28;19924;-76
2021/12/27 14:18:59;;;;;;;;;;;8.00;98.90;;;;;;5039037;28;19979;-76
2021/12/27 14:21:26;;;;;;;;;;;8.10;98.70;;;;;;5038434;28;19924;-76
2021/12/27 14:24:01;;;;;;;;;;;8.10;98.60;;;;;;5041319;28;19928;-75
2021/12/27 14:26:29;;;;;;;;;;;8.10;98.50;;;;;;5047625;28;19931;-76
2021/12/27 14:29:10;;;;;;;;;;;8.20;98.40;;;;;;5042304;28;19933;-74
2021/12/27 14:31:37;;;;;;;;;;;8.20;98.30;;;;;;5041173;28;20002;-74
2021/12/27 14:34:03;;;;;;;;;;;8.20;98.10;;;;;;5044160;28;20493;-73
2021/12/27 14:36:31;;;;;;;;;;;8.30;98.10;;;;;;5037177;28;19929;-75
2021/12/27 14:38:57;;;;;;;;;;;8.30;98.00;;;;;;5038312;28;20044;-75
2021/12/27 14:41:24;;;;;;;;;;;8.30;98.00;;;;;;5042290;28;19925;-76
2021/12/27 14:43:51;;;;;;;;;;;8.30;97.90;;;;;;5038638;28;20430;-75
2021/12/27 14:46:20;;;;;;;;;;;8.30;97.90;;;;;;5042536;28;19932;-75
2021/12/27 14:48:46;;;;;;;;;;;8.30;97.80;;;;;;5039650;28;19987;-75
2021/12/27 14:51:13;;;;;;;;;;;8.30;97.80;;;;;;5041600;28;20297;-75
2021/12/27 14:53:39;;;;;;;;;;;8.40;97.70;;;;;;5037551;28;19986;-76